Terminal Aerodrome Forecast
Issued by NWS Paducah, KY

Home | Current Version | Previous Version | Text Only | Print | Product List | Glossary On
Versions: 1 2 3 4 5 6 7 8 9 10 11 12 13 14 15 16 17 18 19 20 21 22 23 24 25
000
FTUS43 KPAH 022336
TAFPAH
TAF
KPAH 022336Z 0300/0324 35005KT P6SM FEW035 SCT090
     FM030500 36003KT P6SM VCSH SCT015 BKN025
     FM030800 30003KT 4SM BR SCT007 BKN015
     FM031600 26006KT P6SM SCT020 BKN035 PROB30 0318/0324 TS
      BKN025CB=

USA.gov is the U.S. government's official web portal to all federal, state and local government web resources and services.